Time;durP1;ratioP1;P1;durP2;ratioP2;P2;SDS_P1;SDS_P2;PMS_P1;PMS_P2;Temp;Humidity;BMP_temperature;BMP_pressure;BME280_temperature;BME280_humidity;BME280_pressure;Samples;Min_cycle;Max_cycle;Signal;HPM_P1;HPM_P2
2020/12/10 00:00:23;;;;;;;8.97;5.00;;;4.20;99.90;;;;;;5078506;28;20553;-75
2020/12/10 00:02:50;;;;;;;9.60;6.03;;;4.20;99.90;;;;;;5079883;28;20672;-74
2020/12/10 00:05:17;;;;;;;12.87;5.67;;;4.20;99.90;;;;;;5081705;28;20257;-75
2020/12/10 00:07:43;;;;;;;13.83;6.00;;;4.20;99.90;;;;;;5066938;28;20272;-74
2020/12/10 00:10:10;;;;;;;9.83;5.40;;;4.20;99.90;;;;;;5081858;28;20249;-74
2020/12/10 00:12:44;;;;;;;11.90;5.07;;;4.20;99.90;;;;;;5080967;28;20217;-74
2020/12/10 00:15:12;;;;;;;9.67;6.13;;;4.30;99.90;;;;;;5081126;28;20256;-74
2020/12/10 00:17:38;;;;;;;8.73;5.67;;;4.30;99.90;;;;;;5085168;28;20207;-73
2020/12/10 00:20:06;;;;;;;8.80;4.90;;;4.30;99.90;;;;;;5084594;28;20269;-74
2020/12/10 00:22:34;;;;;;;10.33;5.57;;;4.10;99.90;;;;;;5063394;28;20321;-74
2020/12/10 00:25:05;;;;;;;12.07;5.80;;;4.30;99.90;;;;;;5084789;28;20202;-74
2020/12/10 00:27:31;;;;;;;10.30;5.50;;;4.20;99.90;;;;;;5097289;28;20556;-74
2020/12/10 00:29:58;;;;;;;9.50;5.30;;;4.20;99.90;;;;;;5085479;28;20603;-74
2020/12/10 00:32:25;;;;;;;10.37;5.77;;;4.20;99.90;;;;;;5088082;28;20226;-75
2020/12/10 00:34:55;;;;;;;10.43;6.60;;;4.30;99.90;;;;;;5084379;28;20212;-75
2020/12/10 00:37:25;;;;;;;10.10;5.77;;;4.40;99.90;;;;;;5067423;28;20591;-74
2020/12/10 00:39:52;;;;;;;15.20;5.90;;;4.50;99.90;;;;;;5083709;28;20245;-74
2020/12/10 00:42:19;;;;;;;9.40;5.57;;;4.50;99.90;;;;;;5079327;28;20596;-74
2020/12/10 00:44:45;;;;;;;9.00;5.23;;;4.50;99.90;;;;;;5083822;28;20235;-73
2020/12/10 00:47:14;;;;;;;12.77;6.77;;;4.50;99.90;;;;;;5067641;28;20277;-74
2020/12/10 00:49:41;;;;;;;8.17;5.50;;;4.60;99.90;;;;;;5070955;28;20232;-74
2020/12/10 00:52:07;;;;;;;13.00;6.77;;;4.50;99.90;;;;;;5064466;28;20275;-74
2020/12/10 00:54:35;;;;;;;10.87;5.40;;;4.40;99.90;;;;;;5079457;28;20222;-75
2020/12/10 00:57:01;;;;;;;10.77;6.00;;;4.40;99.90;;;;;;5065017;28;20204;-74
2020/12/10 00:59:28;;;;;;;9.00;6.07;;;4.50;99.90;;;;;;5079866;28;20672;-74
2020/12/10 01:01:54;;;;;;;8.50;5.30;;;4.30;99.90;;;;;;5066807;28;20271;-75
2020/12/10 01:04:21;;;;;;;12.53;6.13;;;4.30;99.90;;;;;;5068412;28;20231;-74
2020/12/10 01:06:47;;;;;;;10.40;6.33;;;4.30;99.90;;;;;;5056391;28;20235;-74
2020/12/10 01:09:14;;;;;;;9.73;6.67;;;4.30;99.90;;;;;;5085793;28;20292;-75
2020/12/10 01:11:40;;;;;;;10.13;5.70;;;4.20;99.90;;;;;;5064646;28;20207;-75
2020/12/10 01:14:06;;;;;;;9.53;6.13;;;4.20;99.90;;;;;;5063644;28;20217;-75
2020/12/10 01:16:33;;;;;;;10.90;6.07;;;4.20;99.90;;;;;;5084553;28;20328;-75
2020/12/10 01:19:00;;;;;;;10.50;6.43;;;4.20;99.90;;;;;;5077177;28;20231;-75
2020/12/10 01:21:34;;;;;;;12.47;7.00;;;4.10;99.90;;;;;;5075792;28;20390;-74
2020/12/10 01:24:01;;;;;;;12.03;6.33;;;3.90;99.90;;;;;;5074254;28;20205;-74
2020/12/10 01:26:30;;;;;;;11.70;6.80;;;3.80;99.90;;;;;;5065153;28;20201;-74
2020/12/10 01:28:57;;;;;;;11.20;6.40;;;3.80;99.90;;;;;;5084717;28;20210;-74
2020/12/10 01:31:23;;;;;;;8.50;5.17;;;3.70;99.90;;;;;;5076882;28;20277;-74
2020/12/10 01:33:51;;;;;;;11.73;6.77;;;3.60;99.90;;;;;;5089823;28;20274;-74
2020/12/10 01:36:21;;;;;;;13.40;7.27;;;3.50;99.90;;;;;;5067715;28;20260;-74
2020/12/10 01:38:49;;;;;;;14.27;6.53;;;3.50;99.90;;;;;;5085788;28;20681;-74
2020/12/10 01:41:17;;;;;;;12.67;6.53;;;3.50;99.90;;;;;;5065617;28;20660;-74
2020/12/10 01:43:44;;;;;;;11.27;6.70;;;3.30;99.90;;;;;;5081974;28;20294;-74
2020/12/10 01:46:11;;;;;;;11.83;6.50;;;3.20;99.90;;;;;;5082699;28;20191;-74
2020/12/10 01:48:38;;;;;;;13.07;7.00;;;3.00;99.90;;;;;;5080313;28;20235;-74
2020/12/10 01:51:05;;;;;;;15.33;8.13;;;3.00;99.90;;;;;;5080286;28;20558;-74
2020/12/10 01:53:32;;;;;;;13.63;7.77;;;2.70;99.90;;;;;;5084664;28;20703;-74
2020/12/10 01:55:58;;;;;;;16.30;6.87;;;2.70;99.90;;;;;;5067351;28;20255;-74
2020/12/10 01:58:25;;;;;;;16.27;8.10;;;2.60;99.90;;;;;;5050597;28;20241;-74
2020/12/10 02:00:52;;;;;;;15.63;7.80;;;2.60;99.90;;;;;;5083102;28;20254;-74
2020/12/10 02:03:19;;;;;;;14.20;7.37;;;2.60;99.90;;;;;;5082203;28;20616;-74
2020/12/10 02:05:47;;;;;;;15.07;8.13;;;2.60;99.90;;;;;;5071158;28;20251;-74
2020/12/10 02:08:14;;;;;;;13.03;7.83;;;2.50;99.90;;;;;;5077826;28;20677;-74
2020/12/10 02:10:41;;;;;;;16.70;8.70;;;2.40;99.90;;;;;;5075280;28;20244;-74
2020/12/10 02:13:08;;;;;;;13.40;7.73;;;2.30;99.90;;;;;;5064895;28;20211;-74
2020/12/10 02:15:35;;;;;;;17.47;8.47;;;2.40;99.90;;;;;;5071788;28;20925;-74
2020/12/10 02:18:04;;;;;;;13.13;7.53;;;2.40;99.90;;;;;;5068241;28;21214;-75
2020/12/10 02:20:31;;;;;;;14.47;7.43;;;2.40;99.90;;;;;;5088004;28;20661;-74
2020/12/10 02:23:05;;;;;;;15.90;7.53;;;2.40;99.90;;;;;;5090008;28;20706;-74
2020/12/10 02:25:33;;;;;;;10.77;7.33;;;2.40;99.90;;;;;;5066787;28;20237;-75
2020/12/10 02:28:19;;;;;;;12.97;7.53;;;2.50;99.90;;;;;;5087902;28;20195;-74
2020/12/10 02:30:47;;;;;;;12.27;7.33;;;2.50;99.90;;;;;;5078679;28;20278;-75
2020/12/10 02:33:14;;;;;;;14.40;7.80;;;2.50;99.90;;;;;;5086128;28;20217;-74
2020/12/10 02:35:42;;;;;;;12.23;7.00;;;2.40;99.90;;;;;;5086551;28;20209;-74
2020/12/10 02:38:10;;;;;;;11.03;7.13;;;2.40;99.90;;;;;;5073610;28;20551;-74
2020/12/10 02:40:45;;;;;;;14.77;8.20;;;2.40;99.90;;;;;;5085466;28;20191;-74
2020/12/10 02:43:13;;;;;;;13.23;7.73;;;2.40;99.90;;;;;;5082592;28;20256;-75
2020/12/10 02:45:41;;;;;;;17.67;7.67;;;2.40;99.90;;;;;;5085585;28;20259;-74
2020/12/10 02:48:08;;;;;;;13.53;7.50;;;2.50;99.90;;;;;;5090266;28;20289;-74
2020/12/10 02:50:36;;;;;;;15.73;7.60;;;2.50;99.90;;;;;;5086490;28;20247;-74
2020/12/10 02:53:03;;;;;;;12.57;7.30;;;2.50;99.90;;;;;;5071647;28;20210;-74
2020/12/10 02:55:29;;;;;;;15.53;7.53;;;2.50;99.90;;;;;;5055042;28;20282;-74
2020/12/10 02:57:56;;;;;;;14.93;8.27;;;2.50;99.90;;;;;;5083042;28;20232;-74
2020/12/10 03:00:22;;;;;;;14.93;7.77;;;2.40;99.90;;;;;;5050376;28;20575;-74
2020/12/10 03:02:49;;;;;;;13.87;7.97;;;2.50;99.90;;;;;;5082711;28;20236;-74
2020/12/10 03:05:15;;;;;;;15.17;6.67;;;2.30;99.90;;;;;;5084209;28;20229;-75
2020/12/10 03:07:42;;;;;;;12.40;7.00;;;2.30;99.90;;;;;;5085889;28;20354;-73
2020/12/10 03:10:08;;;;;;;14.00;7.43;;;2.30;99.90;;;;;;5087163;28;20652;-74
2020/12/10 03:12:34;;;;;;;16.33;8.00;;;2.20;99.90;;;;;;5067419;28;20318;-74
2020/12/10 03:15:01;;;;;;;14.73;7.73;;;2.00;99.90;;;;;;5067782;28;21908;-75
2020/12/10 03:17:27;;;;;;;16.00;8.23;;;1.90;99.90;;;;;;5080783;28;20244;-74
2020/12/10 03:19:55;;;;;;;13.40;7.27;;;1.90;99.90;;;;;;5078460;28;20231;-74
2020/12/10 03:22:21;;;;;;;14.60;7.30;;;1.80;99.90;;;;;;5086436;28;20263;-74
2020/12/10 03:24:48;;;;;;;14.73;8.07;;;1.80;99.90;;;;;;5082681;28;20292;-74
2020/12/10 03:27:14;;;;;;;13.43;7.63;;;1.60;99.90;;;;;;5081771;28;20653;-74
2020/12/10 03:29:41;;;;;;;13.73;7.17;;;1.70;99.90;;;;;;5083298;28;20279;-74
2020/12/10 03:32:07;;;;;;;10.83;6.77;;;1.80;99.90;;;;;;5072032;28;20244;-74
2020/12/10 03:34:33;;;;;;;12.43;7.70;;;1.90;99.90;;;;;;5067358;28;20246;-74
2020/12/10 03:37:01;;;;;;;12.60;7.60;;;1.60;99.90;;;;;;5085456;28;20707;-74
2020/12/10 03:39:29;;;;;;;13.83;7.37;;;1.30;99.90;;;;;;5080384;28;20269;-74
2020/12/10 03:41:57;;;;;;;12.77;7.13;;;1.20;99.90;;;;;;5062099;28;20574;-74
2020/12/10 03:44:23;;;;;;;14.07;7.80;;;1.10;99.90;;;;;;5079321;28;20554;-75
2020/12/10 03:46:50;;;;;;;12.80;7.23;;;1.10;99.90;;;;;;5066701;28;20616;-74
2020/12/10 03:49:16;;;;;;;11.27;6.77;;;1.20;99.90;;;;;;5083609;28;20211;-73
2020/12/10 03:51:43;;;;;;;13.00;6.87;;;1.20;99.90;;;;;;5082137;28;20251;-73
2020/12/10 03:54:09;;;;;;;14.00;7.60;;;1.10;99.90;;;;;;5082182;28;20521;-73
2020/12/10 03:56:35;;;;;;;12.40;7.57;;;1.00;99.90;;;;;;5072303;28;20197;-75
2020/12/10 03:59:03;;;;;;;12.70;7.60;;;1.00;99.90;;;;;;5082065;28;20288;-74
2020/12/10 04:01:30;;;;;;;13.97;7.20;;;1.00;99.90;;;;;;5079448;28;20273;-74
2020/12/10 04:03:58;;;;;;;13.03;7.03;;;0.90;99.90;;;;;;5080975;28;20191;-73
2020/12/10 04:06:25;;;;;;;12.17;6.50;;;1.10;99.90;;;;;;5084976;28;20203;-74
2020/12/10 04:08:51;;;;;;;12.27;6.87;;;1.10;99.90;;;;;;5083434;28;21365;-73
2020/12/10 04:11:18;;;;;;;10.37;6.40;;;1.20;99.90;;;;;;5068132;28;20201;-74
2020/12/10 04:13:45;;;;;;;10.90;6.93;;;1.00;99.90;;;;;;5082548;28;20257;-74
2020/12/10 04:16:11;;;;;;;14.53;8.13;;;0.90;99.90;;;;;;5083943;28;20231;-74
2020/12/10 04:18:42;;;;;;;15.20;7.43;;;0.90;99.90;;;;;;5065584;28;20282;-74
2020/12/10 04:21:10;;;;;;;10.97;6.97;;;0.80;99.90;;;;;;5083996;28;20318;-74
2020/12/10 04:23:37;;;;;;;12.80;7.50;;;0.80;99.90;;;;;;5084075;28;20722;-74
2020/12/10 04:26:03;;;;;;;13.30;7.53;;;0.80;99.90;;;;;;5076166;28;20673;-74
2020/12/10 04:28:30;;;;;;;14.93;7.20;;;0.90;99.90;;;;;;5079238;28;20735;-74
2020/12/10 04:30:57;;;;;;;12.23;7.67;;;0.80;99.90;;;;;;5075874;28;20203;-74
2020/12/10 04:33:23;;;;;;;13.80;7.60;;;0.90;99.90;;;;;;5083551;28;20706;-74
2020/12/10 04:35:49;;;;;;;15.53;7.53;;;0.90;99.90;;;;;;5064087;28;20564;-73
2020/12/10 04:38:16;;;;;;;10.63;7.03;;;1.10;99.90;;;;;;5077194;28;20251;-73
2020/12/10 04:40:43;;;;;;;13.47;7.17;;;1.00;99.90;;;;;;5079802;28;20249;-73
2020/12/10 04:43:11;;;;;;;12.67;7.70;;;0.90;99.90;;;;;;5081232;28;20198;-72
2020/12/10 04:45:38;;;;;;;12.43;7.20;;;0.90;99.90;;;;;;5067574;28;20232;-75
2020/12/10 04:48:05;;;;;;;17.47;7.07;;;0.90;99.90;;;;;;5088773;28;21023;-74
2020/12/10 04:50:36;;;;;;;15.07;7.07;;;0.80;99.90;;;;;;5085204;28;20478;-74
2020/12/10 04:53:03;;;;;;;15.47;6.63;;;0.80;99.90;;;;;;5066448;28;20222;-73
2020/12/10 04:55:30;;;;;;;13.53;7.27;;;0.80;99.90;;;;;;5066147;28;20596;-74
2020/12/10 04:57:59;;;;;;;13.50;7.00;;;0.80;99.90;;;;;;5077724;28;20210;-73
2020/12/10 05:00:27;;;;;;;12.93;7.13;;;0.90;99.90;;;;;;5080486;28;20187;-73
2020/12/10 05:02:54;;;;;;;12.73;7.13;;;0.80;99.90;;;;;;5082274;28;20211;-72
2020/12/10 05:05:29;;;;;;;11.90;6.43;;;0.70;99.90;;;;;;5062456;28;20643;-73
2020/12/10 05:07:58;;;;;;;12.10;7.27;;;0.70;99.90;;;;;;5082868;28;20206;-74
2020/12/10 05:10:24;;;;;;;13.47;7.53;;;0.70;99.90;;;;;;5083763;28;20623;-73
2020/12/10 05:13:00;;;;;;;11.97;6.90;;;0.70;99.90;;;;;;5072494;28;20248;-73
2020/12/10 05:15:37;;;;;;;14.07;7.87;;;0.80;99.90;;;;;;5068211;28;20659;-73
2020/12/10 05:18:10;;;;;;;12.47;7.70;;;0.80;99.90;;;;;;5076315;28;20193;-73
2020/12/10 05:20:46;;;;;;;10.60;6.37;;;0.90;99.90;;;;;;5085716;28;21205;-73
2020/12/10 05:23:14;;;;;;;11.87;7.07;;;0.90;99.90;;;;;;5082680;28;20637;-73
2020/12/10 05:25:53;;;;;;;12.93;7.90;;;1.00;99.90;;;;;;5079629;28;20227;-74
2020/12/10 05:28:22;;;;;;;12.33;6.63;;;0.90;99.90;;;;;;5081357;28;20212;-73
2020/12/10 05:31:08;;;;;;;13.63;6.83;;;1.00;99.90;;;;;;5080008;28;20207;-73
2020/12/10 05:33:35;;;;;;;12.57;5.90;;;1.00;99.90;;;;;;5081937;28;20247;-73
2020/12/10 05:36:09;;;;;;;14.17;6.47;;;1.10;99.90;;;;;;5086417;28;20235;-74
2020/12/10 05:38:57;;;;;;;17.27;6.70;;;1.10;99.90;;;;;;5080200;28;20238;-73
2020/12/10 05:41:25;;;;;;;13.30;6.47;;;1.20;99.90;;;;;;5080640;28;20227;-73
2020/12/10 05:43:53;;;;;;;13.43;7.10;;;1.30;99.90;;;;;;5080177;28;20317;-74
2020/12/10 05:46:23;;;;;;;12.87;6.77;;;1.10;99.90;;;;;;5079702;28;20214;-73
2020/12/10 05:48:51;;;;;;;12.27;6.33;;;1.20;99.90;;;;;;5082461;28;20312;-73
2020/12/10 05:51:22;;;;;;;10.17;6.10;;;1.30;99.90;;;;;;5081768;28;20202;-73
2020/12/10 05:53:49;;;;;;;11.00;5.97;;;1.30;99.90;;;;;;5064401;28;20661;-73
2020/12/10 05:56:18;;;;;;;13.70;7.27;;;1.40;99.90;;;;;;5084721;28;20236;-72
2020/12/10 05:58:53;;;;;;;12.90;7.17;;;1.40;99.90;;;;;;5068722;28;20301;-73
2020/12/10 06:01:47;;;;;;;9.77;5.67;;;1.40;99.90;;;;;;5062247;28;20275;-74
2020/12/10 06:04:15;;;;;;;10.33;5.90;;;1.30;99.90;;;;;;5076024;28;20238;-73
2020/12/10 06:06:42;;;;;;;10.90;6.17;;;1.30;99.90;;;;;;5065184;28;21848;-74
2020/12/10 06:09:08;;;;;;;12.50;7.03;;;1.40;99.90;;;;;;5079981;28;20274;-73
2020/12/10 06:11:35;;;;;;;11.30;6.53;;;1.40;99.90;;;;;;5068543;28;20500;-73
2020/12/10 06:14:02;;;;;;;9.30;5.90;;;1.30;99.90;;;;;;5078351;28;20480;-74
2020/12/10 06:16:29;;;;;;;13.77;6.33;;;1.10;99.90;;;;;;5080671;28;20511;-73
2020/12/10 06:19:02;;;;;;;11.30;6.60;;;1.20;99.90;;;;;;5080124;28;20196;-74
2020/12/10 06:21:35;;;;;;;14.13;6.07;;;1.00;99.90;;;;;;5073141;28;21259;-73
2020/12/10 06:24:26;;;;;;;12.03;6.23;;;0.90;99.90;;;;;;5079081;28;20220;-73
2020/12/10 06:26:57;;;;;;;16.97;6.27;;;0.80;99.90;;;;;;5074084;28;21054;-73
2020/12/10 06:29:30;;;;;;;11.40;5.80;;;0.90;99.90;;;;;;5078681;28;20608;-73
2020/12/10 06:32:13;;;;;;;12.50;6.63;;;0.90;99.90;;;;;;5080987;28;20228;-74
2020/12/10 06:34:41;;;;;;;12.60;7.10;;;1.00;99.90;;;;;;5081840;28;20241;-74
2020/12/10 06:37:14;;;;;;;12.57;6.67;;;1.10;99.90;;;;;;5081644;28;20224;-75
2020/12/10 06:39:42;;;;;;;10.17;5.77;;;1.20;99.90;;;;;;5078181;28;20271;-76
2020/12/10 06:42:08;;;;;;;10.17;5.57;;;1.10;99.90;;;;;;5084175;28;20259;-76
2020/12/10 06:44:35;;;;;;;11.37;6.60;;;1.10;99.90;;;;;;5068749;28;20199;-77
2020/12/10 06:47:05;;;;;;;12.93;6.63;;;0.90;99.90;;;;;;5079675;28;20284;-77
2020/12/10 06:49:38;;;;;;;10.17;6.20;;;0.80;99.90;;;;;;5091527;28;20223;-77
2020/12/10 06:52:08;;;;;;;13.67;5.57;;;0.80;99.90;;;;;;5090898;28;20236;-76
2020/12/10 06:54:34;;;;;;;10.97;7.13;;;0.70;99.90;;;;;;5080611;28;20250;-77
2020/12/10 06:57:06;;;;;;;10.90;6.70;;;0.80;99.90;;;;;;5077803;28;20201;-77
2020/12/10 06:59:43;;;;;;;11.47;6.33;;;0.90;99.90;;;;;;5065996;28;20235;-77
2020/12/10 07:02:15;;;;;;;11.47;5.80;;;0.90;99.90;;;;;;5073688;28;20238;-76
2020/12/10 07:04:50;;;;;;;12.20;5.83;;;0.90;99.90;;;;;;5082327;28;20230;-76
2020/12/10 07:07:22;;;;;;;12.10;6.43;;;0.70;99.90;;;;;;5075262;28;20304;-76
2020/12/10 07:09:57;;;;;;;10.20;5.73;;;0.70;99.90;;;;;;5053857;28;20223;-76
2020/12/10 07:12:26;;;;;;;10.37;6.13;;;0.50;99.90;;;;;;5083976;28;20704;-76
2020/12/10 07:15:10;;;;;;;13.60;5.83;;;0.50;99.90;;;;;;5081272;28;20236;-76
2020/12/10 07:17:37;;;;;;;13.30;6.50;;;0.50;99.90;;;;;;5073560;28;20203;-75
2020/12/10 07:20:05;;;;;;;10.53;6.13;;;0.50;99.90;;;;;;5086321;28;20234;-75
2020/12/10 07:22:31;;;;;;;10.13;5.80;;;0.50;99.90;;;;;;5071974;28;20244;-76
2020/12/10 07:24:59;;;;;;;12.17;6.23;;;0.50;99.90;;;;;;5082832;28;20199;-76
2020/12/10 07:27:29;;;;;;;9.90;6.23;;;0.40;99.90;;;;;;5071599;28;20203;-76
2020/12/10 07:29:57;;;;;;;12.27;7.10;;;0.40;99.90;;;;;;5075366;28;20233;-78
2020/12/10 07:32:44;;;;;;;9.93;6.63;;;0.50;99.90;;;;;;5070301;28;20239;-76
2020/12/10 07:35:11;;;;;;;10.77;6.13;;;0.60;99.90;;;;;;5081805;28;20241;-75
2020/12/10 07:37:39;;;;;;;12.77;7.00;;;0.70;99.90;;;;;;5085839;28;20222;-75
2020/12/10 07:40:43;;;;;;;11.97;6.27;;;0.80;99.90;;;;;;5079583;28;20524;-75
2020/12/10 07:43:10;;;;;;;8.80;5.07;;;0.80;99.90;;;;;;5080045;28;20221;-75
2020/12/10 07:45:38;;;;;;;11.73;6.07;;;0.80;99.90;;;;;;5075099;28;20288;-75
2020/12/10 07:48:06;;;;;;;12.23;6.90;;;0.70;99.90;;;;;;5064751;28;20207;-75
2020/12/10 07:50:38;;;;;;;12.87;6.47;;;0.70;99.90;;;;;;5059671;28;20273;-75
2020/12/10 07:53:07;;;;;;;13.30;5.67;;;0.90;99.90;;;;;;5078831;28;20269;-76
2020/12/10 07:55:37;;;;;;;10.63;6.40;;;1.10;99.90;;;;;;5075872;28;20222;-76
2020/12/10 07:58:23;;;;;;;11.53;6.47;;;1.10;99.90;;;;;;5079712;28;20218;-75
2020/12/10 08:00:51;;;;;;;11.23;6.07;;;1.10;99.90;;;;;;5086273;28;20963;-74
2020/12/10 08:03:27;;;;;;;12.77;6.63;;;1.20;99.90;;;;;;5084003;28;21500;-75
2020/12/10 08:06:03;;;;;;;13.20;6.80;;;1.20;99.90;;;;;;5079389;28;20212;-75
2020/12/10 08:08:36;;;;;;;15.57;10.07;;;1.20;99.90;;;;;;5081225;28;20470;-80
2020/12/10 08:11:12;;;;;;;13.47;7.77;;;1.20;99.90;;;;;;5079569;28;20215;-80
2020/12/10 08:13:56;;;;;;;12.93;6.70;;;1.00;99.90;;;;;;5082343;28;20318;-81
2020/12/10 08:16:23;;;;;;;13.17;7.80;;;0.80;99.90;;;;;;5084341;28;20200;-82
2020/12/10 08:18:50;;;;;;;13.03;7.20;;;0.80;99.90;;;;;;5058591;28;20212;-82
2020/12/10 08:21:32;;;;;;;14.60;7.07;;;0.80;99.90;;;;;;5066711;28;21483;-81
2020/12/10 08:23:58;;;;;;;14.90;7.93;;;0.90;99.90;;;;;;5080383;28;20199;-79
2020/12/10 08:26:25;;;;;;;12.23;7.53;;;0.90;99.90;;;;;;5084561;28;20217;-79
2020/12/10 08:28:59;;;;;;;16.20;7.70;;;0.90;99.90;;;;;;5054737;28;20656;-79
2020/12/10 08:31:28;;;;;;;12.53;7.33;;;0.90;99.90;;;;;;5074144;28;20261;-80
2020/12/10 08:33:58;;;;;;;14.27;7.73;;;0.80;99.90;;;;;;5088016;28;20215;-78
2020/12/10 08:36:34;;;;;;;12.40;6.77;;;0.70;99.90;;;;;;5070464;28;20646;-79
2020/12/10 08:39:04;;;;;;;13.17;7.23;;;0.60;99.90;;;;;;5082613;28;20825;-77
2020/12/10 08:41:31;;;;;;;13.87;7.37;;;0.70;99.90;;;;;;5081045;28;20238;-78
2020/12/10 08:44:00;;;;;;;14.03;7.73;;;0.80;99.90;;;;;;5083320;28;20204;-79
2020/12/10 08:46:32;;;;;;;15.27;7.43;;;0.90;99.90;;;;;;5085978;28;20532;-79
2020/12/10 08:49:16;;;;;;;11.53;7.13;;;1.20;99.90;;;;;;5078156;28;20207;-80
2020/12/10 08:51:44;;;;;;;12.73;7.60;;;1.00;99.90;;;;;;5087625;28;20260;-79
2020/12/10 08:54:10;;;;;;;14.47;7.83;;;1.10;99.90;;;;;;5053281;28;20224;-79
2020/12/10 08:56:38;;;;;;;12.20;7.87;;;1.10;99.90;;;;;;5065182;28;20274;-78
2020/12/10 08:59:07;;;;;;;14.33;7.67;;;1.20;99.90;;;;;;5068015;28;20200;-78
2020/12/10 09:01:52;;;;;;;17.00;8.03;;;1.30;99.90;;;;;;5079194;28;20191;-80
2020/12/10 09:04:33;;;;;;;14.33;7.63;;;1.60;99.90;;;;;;5070217;28;20345;-80
2020/12/10 09:07:14;;;;;;;12.37;7.10;;;1.40;99.90;;;;;;5083528;28;20277;-80
2020/12/10 09:09:55;;;;;;;14.13;7.53;;;1.40;99.90;;;;;;5058856;28;20187;-79
2020/12/10 09:12:21;;;;;;;12.70;6.70;;;1.40;99.90;;;;;;5079035;28;20280;-81
2020/12/10 09:14:47;;;;;;;14.23;7.07;;;1.40;99.90;;;;;;5060646;28;20653;-81
2020/12/10 09:17:13;;;;;;;12.00;7.27;;;1.40;99.90;;;;;;5047314;28;20587;-79
2020/12/10 09:19:40;;;;;;;16.13;7.87;;;1.40;99.90;;;;;;5086438;28;20197;-80
2020/12/10 09:22:09;;;;;;;15.93;8.13;;;1.40;99.90;;;;;;5081692;28;20713;-79
2020/12/10 09:24:35;;;;;;;12.60;7.93;;;1.30;99.90;;;;;;5068891;28;20260;-79
2020/12/10 09:27:06;;;;;;;18.48;10.35;;;1.20;99.90;;;;;;5062415;28;20517;-75
2020/12/10 09:29:34;;;;;;;16.90;10.17;;;1.50;99.90;;;;;;5084540;28;20209;-75
2020/12/10 09:32:01;;;;;;;12.53;7.40;;;1.70;99.90;;;;;;5079442;28;20192;-75
2020/12/10 09:34:27;;;;;;;15.50;8.83;;;1.70;99.90;;;;;;5074768;28;20239;-74
2020/12/10 09:36:54;;;;;;;15.10;8.80;;;1.70;99.90;;;;;;5089692;28;20200;-74
2020/12/10 09:39:43;;;;;;;17.40;8.80;;;1.80;99.90;;;;;;5084938;28;20247;-74
2020/12/10 09:42:09;;;;;;;14.00;7.67;;;2.00;99.90;;;;;;5080376;28;20200;-74
2020/12/10 09:44:36;;;;;;;14.70;8.23;;;2.10;99.90;;;;;;5074692;28;20668;-74
2020/12/10 09:47:06;;;;;;;16.53;7.43;;;1.90;99.90;;;;;;5064209;28;20203;-75
2020/12/10 09:49:42;;;;;;;14.30;8.27;;;2.00;99.90;;;;;;5079690;28;20222;-75
2020/12/10 09:52:13;;;;;;;12.97;8.17;;;1.80;99.90;;;;;;5079809;28;20199;-75
2020/12/10 09:57:38;;;;;;;12.90;7.57;;;1.90;99.90;;;;;;5088783;28;20202;-75
2020/12/10 10:00:09;;;;;;;16.17;8.10;;;1.80;99.90;;;;;;5063462;28;20271;-75
2020/12/10 10:02:35;;;;;;;14.90;8.73;;;1.90;99.90;;;;;;5049906;28;20812;-74
2020/12/10 10:05:02;;;;;;;15.20;7.90;;;1.90;99.90;;;;;;5044726;28;20237;-74
2020/12/10 10:07:28;;;;;;;17.37;8.57;;;1.80;99.90;;;;;;5081395;28;20215;-78
2020/12/10 10:09:55;;;;;;;15.27;7.80;;;1.90;99.90;;;;;;5057816;28;20280;-77
2020/12/10 10:12:21;;;;;;;13.87;8.10;;;1.90;99.90;;;;;;5079108;28;20301;-75
2020/12/10 10:14:48;;;;;;;12.87;7.43;;;2.00;99.90;;;;;;5068931;28;20199;-74
2020/12/10 10:17:18;;;;;;;15.77;7.60;;;1.80;99.90;;;;;;5069403;28;20211;-75
2020/12/10 10:19:45;;;;;;;13.17;7.27;;;2.00;99.90;;;;;;5066645;28;20272;-74
2020/12/10 10:22:13;;;;;;;14.50;8.23;;;2.10;99.90;;;;;;5049424;28;20194;-78
2020/12/10 10:24:39;;;;;;;15.23;7.87;;;2.00;99.90;;;;;;5055448;28;20568;-74
2020/12/10 10:27:06;;;;;;;14.67;7.73;;;1.90;99.90;;;;;;5072768;28;20673;-74
2020/12/10 10:29:32;;;;;;;14.03;8.57;;;2.10;99.90;;;;;;5073712;28;20543;-74
2020/12/10 10:31:58;;;;;;;15.93;8.43;;;2.10;99.90;;;;;;5071531;28;20218;-73
2020/12/10 10:34:26;;;;;;;14.93;8.37;;;2.10;99.90;;;;;;5083991;28;20622;-72
2020/12/10 10:36:53;;;;;;;15.37;8.90;;;2.00;99.90;;;;;;5085330;28;20828;-72
2020/12/10 10:39:27;;;;;;;10.50;6.80;;;2.10;99.90;;;;;;5083897;28;20238;-73
2020/12/10 10:41:54;;;;;;;19.90;8.90;;;2.00;99.90;;;;;;5088523;28;20199;-73
2020/12/10 10:44:21;;;;;;;19.30;8.93;;;2.00;99.90;;;;;;5083324;28;20206;-72
2020/12/10 10:46:48;;;;;;;18.07;8.60;;;1.90;99.90;;;;;;5052346;28;20199;-72
2020/12/10 10:49:17;;;;;;;13.10;7.70;;;2.00;99.90;;;;;;5067167;28;20229;-73
2020/12/10 10:51:47;;;;;;;15.77;8.80;;;2.10;99.90;;;;;;5081718;28;20200;-72
2020/12/10 10:54:15;;;;;;;18.43;8.83;;;2.00;99.90;;;;;;5082424;28;20674;-72
2020/12/10 10:56:41;;;;;;;15.20;8.00;;;2.00;99.90;;;;;;5086657;28;20231;-73
2020/12/10 10:59:08;;;;;;;15.23;8.57;;;2.10;99.90;;;;;;5083897;28;20594;-72
2020/12/10 11:01:36;;;;;;;18.00;9.20;;;2.10;99.90;;;;;;5079205;28;20198;-72
2020/12/10 11:04:02;;;;;;;15.63;9.10;;;2.30;99.90;;;;;;5063247;28;20254;-72
2020/12/10 11:06:29;;;;;;;15.47;9.03;;;2.50;99.90;;;;;;5082159;28;20646;-75
2020/12/10 11:08:55;;;;;;;13.87;9.00;;;2.50;99.90;;;;;;5081045;28;20243;-72
2020/12/10 11:11:23;;;;;;;22.67;9.17;;;2.50;99.90;;;;;;5064923;28;21571;-73
2020/12/10 11:13:52;;;;;;;16.57;9.03;;;2.50;99.90;;;;;;5073903;28;20279;-73
2020/12/10 11:16:21;;;;;;;16.53;7.73;;;2.60;99.90;;;;;;5069927;28;20286;-73
2020/12/10 11:18:47;;;;;;;17.37;10.00;;;2.50;99.90;;;;;;5062097;28;20191;-74
2020/12/10 11:21:17;;;;;;;17.23;9.17;;;2.40;99.90;;;;;;5083708;28;20295;-73
2020/12/10 11:24:04;;;;;;;17.57;9.07;;;2.40;99.90;;;;;;5084140;28;20224;-73
2020/12/10 11:26:32;;;;;;;18.07;9.40;;;2.40;99.90;;;;;;5085596;28;20195;-72
2020/12/10 11:29:00;;;;;;;19.80;9.00;;;2.50;99.90;;;;;;5074229;28;20644;-73
2020/12/10 11:31:27;;;;;;;15.90;8.53;;;2.60;99.90;;;;;;5079282;28;20204;-72
2020/12/10 11:33:54;;;;;;;14.33;8.10;;;2.70;99.90;;;;;;5064339;28;20589;-73
2020/12/10 11:36:22;;;;;;;14.73;8.03;;;2.80;99.90;;;;;;5082563;28;20226;-72
2020/12/10 11:38:49;;;;;;;20.17;10.33;;;2.90;99.90;;;;;;5068705;28;20214;-73
2020/12/10 11:41:19;;;;;;;14.70;9.00;;;2.90;99.90;;;;;;5081008;28;20207;-73
2020/12/10 11:43:47;;;;;;;15.27;9.43;;;2.90;99.90;;;;;;5094389;28;20202;-72
2020/12/10 11:46:14;;;;;;;16.87;9.67;;;3.20;99.90;;;;;;5065640;28;20206;-72
2020/12/10 11:48:41;;;;;;;15.33;8.23;;;3.20;99.90;;;;;;5082056;28;20335;-73
2020/12/10 11:51:08;;;;;;;17.63;8.93;;;3.20;99.90;;;;;;5082236;28;20214;-73
2020/12/10 11:53:55;;;;;;;13.23;8.30;;;3.20;99.90;;;;;;5082301;28;20330;-74
2020/12/10 11:56:22;;;;;;;15.10;9.33;;;3.40;99.90;;;;;;5081704;28;20244;-72
2020/12/10 11:58:48;;;;;;;16.87;8.43;;;3.40;99.90;;;;;;5078889;28;20233;-72
2020/12/10 12:01:15;;;;;;;15.93;8.50;;;3.60;99.90;;;;;;5071418;28;20317;-73
2020/12/10 12:03:48;;;;;;;17.73;9.03;;;3.70;99.90;;;;;;5079453;28;20241;-72
2020/12/10 12:06:16;;;;;;;16.13;7.90;;;3.80;99.90;;;;;;5064985;28;20663;-73
2020/12/10 12:08:42;;;;;;;17.93;9.63;;;3.90;99.90;;;;;;5069790;28;20199;-71
2020/12/10 12:11:12;;;;;;;15.70;8.97;;;3.90;99.90;;;;;;5086492;28;20862;-71
2020/12/10 12:13:39;;;;;;;16.83;8.47;;;4.00;99.90;;;;;;5080248;28;20284;-71
2020/12/10 12:16:06;;;;;;;15.37;8.73;;;3.70;99.90;;;;;;5087753;28;20192;-71
2020/12/10 12:18:34;;;;;;;16.97;8.13;;;3.80;99.90;;;;;;5082011;28;20226;-73
2020/12/10 12:21:00;;;;;;;15.97;8.47;;;3.90;99.90;;;;;;5078274;28;20701;-71
2020/12/10 12:23:26;;;;;;;14.90;8.20;;;3.70;99.90;;;;;;5079882;28;20225;-71
2020/12/10 12:25:53;;;;;;;12.83;7.07;;;3.80;99.90;;;;;;5085111;28;20214;-75
2020/12/10 12:28:22;;;;;;;13.30;8.47;;;4.10;99.90;;;;;;5084966;28;20203;-75
2020/12/10 12:30:48;;;;;;;16.97;9.80;;;4.00;99.90;;;;;;5089758;28;21025;-77
2020/12/10 12:33:14;;;;;;;13.80;7.90;;;4.00;99.90;;;;;;5071414;28;20209;-76
2020/12/10 12:35:46;;;;;;;14.83;8.10;;;3.90;99.90;;;;;;5089686;28;20226;-77
2020/12/10 12:38:17;;;;;;;17.43;8.70;;;4.10;99.90;;;;;;5089288;28;20256;-74
2020/12/10 12:40:46;;;;;;;15.57;8.53;;;4.30;99.90;;;;;;5086824;28;20213;-74
2020/12/10 12:43:36;;;;;;;15.63;7.90;;;4.60;99.90;;;;;;5076571;28;20207;-72
2020/12/10 12:46:06;;;;;;;12.07;7.47;;;4.70;99.90;;;;;;5077664;28;20210;-73
2020/12/10 12:48:54;;;;;;;15.30;7.93;;;5.10;99.90;;;;;;5080788;28;20212;-71
2020/12/10 12:51:22;;;;;;;15.47;8.93;;;4.90;99.90;;;;;;5077829;28;20523;-71
2020/12/10 12:53:54;;;;;;;13.20;7.17;;;4.80;99.90;;;;;;5076096;28;20215;-71
2020/12/10 12:56:37;;;;;;;16.90;7.97;;;4.70;99.90;;;;;;5059491;28;20614;-71
2020/12/10 12:59:07;;;;;;;13.53;8.30;;;4.40;99.90;;;;;;5084373;28;20203;-73
2020/12/10 13:01:36;;;;;;;14.50;7.47;;;4.30;99.90;;;;;;5082791;28;20226;-72